sensor_id;sensor_type;location;lat;lon;timestamp;temperature;humidity
32640;DHT22;19049;52.524;11.468;2022-07-10T00:01:06;16.80;67.00
32640;DHT22;19049;52.524;11.468;2022-07-10T00:03:32;16.80;67.00
32640;DHT22;19049;52.524;11.468;2022-07-10T00:05:57;16.70;67.00
32640;DHT22;19049;52.524;11.468;2022-07-10T00:08:23;16.70;67.30
32640;DHT22;19049;52.524;11.468;2022-07-10T00:10:49;16.80;67.40
32640;DHT22;19049;52.524;11.468;2022-07-10T00:13:14;16.70;67.40
32640;DHT22;19049;52.524;11.468;2022-07-10T00:15:40;16.70;67.40
32640;DHT22;19049;52.524;11.468;2022-07-10T00:18:13;16.70;67.50
32640;DHT22;19049;52.524;11.468;2022-07-10T00:20:39;16.70;67.90
32640;DHT22;19049;52.524;11.468;2022-07-10T00:23:05;16.70;68.00
32640;DHT22;19049;52.524;11.468;2022-07-10T00:25:31;16.70;68.10
32640;DHT22;19049;52.524;11.468;2022-07-10T00:27:58;16.70;68.30
32640;DHT22;19049;52.524;11.468;2022-07-10T00:30:25;16.70;68.40
32640;DHT22;19049;52.524;11.468;2022-07-10T00:32:50;16.70;68.60
32640;DHT22;19049;52.524;11.468;2022-07-10T00:35:16;16.70;68.60
32640;DHT22;19049;52.524;11.468;2022-07-10T00:37:42;16.70;68.40
32640;DHT22;19049;52.524;11.468;2022-07-10T00:40:08;16.70;68.60
32640;DHT22;19049;52.524;11.468;2022-07-10T00:42:33;16.70;68.80
32640;DHT22;19049;52.524;11.468;2022-07-10T00:44:59;16.70;68.80
32640;DHT22;19049;52.524;11.468;2022-07-10T00:47:25;16.60;68.80
32640;DHT22;19049;52.524;11.468;2022-07-10T00:49:50;16.60;69.70
32640;DHT22;19049;52.524;11.468;2022-07-10T00:52:17;16.70;69.10
32640;DHT22;19049;52.524;11.468;2022-07-10T00:54:45;16.60;69.80
32640;DHT22;19049;52.524;11.468;2022-07-10T00:57:12;16.60;70.20
32640;DHT22;19049;52.524;11.468;2022-07-10T00:59:40;16.60;70.80
32640;DHT22;19049;52.524;11.468;2022-07-10T01:02:06;16.50;70.90
32640;DHT22;19049;52.524;11.468;2022-07-10T01:04:32;16.50;71.50
32640;DHT22;19049;52.524;11.468;2022-07-10T01:06:58;16.40;71.90
32640;DHT22;19049;52.524;11.468;2022-07-10T01:09:24;16.40;72.30
32640;DHT22;19049;52.524;11.468;2022-07-10T01:11:50;16.30;72.60
32640;DHT22;19049;52.524;11.468;2022-07-10T01:14:16;16.30;73.00
32640;DHT22;19049;52.524;11.468;2022-07-10T01:16:42;16.20;73.20
32640;DHT22;19049;52.524;11.468;2022-07-10T01:19:07;16.20;74.20
32640;DHT22;19049;52.524;11.468;2022-07-10T01:21:35;16.20;73.80
32640;DHT22;19049;52.524;11.468;2022-07-10T01:24:05;16.10;74.30
32640;DHT22;19049;52.524;11.468;2022-07-10T01:26:31;16.10;75.10
32640;DHT22;19049;52.524;11.468;2022-07-10T01:28:58;16.10;75.10
32640;DHT22;19049;52.524;11.468;2022-07-10T01:31:26;16.00;76.10
32640;DHT22;19049;52.524;11.468;2022-07-10T01:33:53;15.90;76.80
32640;DHT22;19049;52.524;11.468;2022-07-10T01:36:23;15.80;76.80
32640;DHT22;19049;52.524;11.468;2022-07-10T01:38:52;15.80;76.80
32640;DHT22;19049;52.524;11.468;2022-07-10T01:41:18;15.70;76.50
32640;DHT22;19049;52.524;11.468;2022-07-10T01:43:44;15.70;76.70
32640;DHT22;19049;52.524;11.468;2022-07-10T01:46:11;15.60;77.60
32640;DHT22;19049;52.524;11.468;2022-07-10T01:48:38;15.50;79.30
32640;DHT22;19049;52.524;11.468;2022-07-10T01:51:04;15.40;80.00
32640;DHT22;19049;52.524;11.468;2022-07-10T01:53:30;15.40;79.60
32640;DHT22;19049;52.524;11.468;2022-07-10T01:55:56;15.30;79.70
32640;DHT22;19049;52.524;11.468;2022-07-10T01:58:22;15.30;80.00
32640;DHT22;19049;52.524;11.468;2022-07-10T02:00:47;15.20;80.70
32640;DHT22;19049;52.524;11.468;2022-07-10T02:03:13;15.10;81.30
32640;DHT22;19049;52.524;11.468;2022-07-10T02:05:58;15.10;81.40
32640;DHT22;19049;52.524;11.468;2022-07-10T02:08:24;15.00;82.00
32640;DHT22;19049;52.524;11.468;2022-07-10T02:10:49;15.00;82.50
32640;DHT22;19049;52.524;11.468;2022-07-10T02:13:15;15.00;82.70
32640;DHT22;19049;52.524;11.468;2022-07-10T02:15:43;14.90;83.10
32640;DHT22;19049;52.524;11.468;2022-07-10T02:18:09;14.80;83.10
32640;DHT22;19049;52.524;11.468;2022-07-10T02:20:35;14.80;83.20
32640;DHT22;19049;52.524;11.468;2022-07-10T02:23:01;14.80;83.70
32640;DHT22;19049;52.524;11.468;2022-07-10T02:25:27;14.80;83.80
32640;DHT22;19049;52.524;11.468;2022-07-10T02:27:53;14.70;83.90
32640;DHT22;19049;52.524;11.468;2022-07-10T02:30:18;14.70;84.90
32640;DHT22;19049;52.524;11.468;2022-07-10T02:32:44;14.70;84.90
32640;DHT22;19049;52.524;11.468;2022-07-10T02:35:10;14.70;84.90
32640;DHT22;19049;52.524;11.468;2022-07-10T02:37:36;14.70;85.60
32640;DHT22;19049;52.524;11.468;2022-07-10T02:40:02;14.70;85.60
32640;DHT22;19049;52.524;11.468;2022-07-10T02:42:27;14.70;86.10
32640;DHT22;19049;52.524;11.468;2022-07-10T02:44:53;14.70;86.30
32640;DHT22;19049;52.524;11.468;2022-07-10T02:47:19;14.70;86.80
32640;DHT22;19049;52.524;11.468;2022-07-10T02:49:44;14.70;87.00
32640;DHT22;19049;52.524;11.468;2022-07-10T02:52:10;14.70;86.60
32640;DHT22;19049;52.524;11.468;2022-07-10T02:54:36;14.70;86.70
32640;DHT22;19049;52.524;11.468;2022-07-10T02:57:01;14.70;86.90
32640;DHT22;19049;52.524;11.468;2022-07-10T02:59:27;14.70;86.50
32640;DHT22;19049;52.524;11.468;2022-07-10T03:01:53;14.70;86.50
32640;DHT22;19049;52.524;11.468;2022-07-10T03:04:18;14.70;86.80
32640;DHT22;19049;52.524;11.468;2022-07-10T03:06:44;14.70;86.80
32640;DHT22;19049;52.524;11.468;2022-07-10T03:09:12;14.70;86.50
32640;DHT22;19049;52.524;11.468;2022-07-10T03:11:37;14.70;87.00
32640;DHT22;19049;52.524;11.468;2022-07-10T03:14:03;14.70;86.80
32640;DHT22;19049;52.524;11.468;2022-07-10T03:16:29;14.70;87.00
32640;DHT22;19049;52.524;11.468;2022-07-10T03:18:55;14.70;86.80
32640;DHT22;19049;52.524;11.468;2022-07-10T03:21:20;14.70;86.90
32640;DHT22;19049;52.524;11.468;2022-07-10T03:23:46;14.70;87.00
32640;DHT22;19049;52.524;11.468;2022-07-10T03:26:11;14.70;86.90
32640;DHT22;19049;52.524;11.468;2022-07-10T03:28:37;14.70;87.10
32640;DHT22;19049;52.524;11.468;2022-07-10T03:31:03;14.70;87.20
32640;DHT22;19049;52.524;11.468;2022-07-10T03:33:28;14.70;87.20
32640;DHT22;19049;52.524;11.468;2022-07-10T03:35:54;14.70;87.60
32640;DHT22;19049;52.524;11.468;2022-07-10T03:38:20;14.70;87.80
32640;DHT22;19049;52.524;11.468;2022-07-10T03:40:45;14.60;88.30
32640;DHT22;19049;52.524;11.468;2022-07-10T03:43:14;14.60;88.00
32640;DHT22;19049;52.524;11.468;2022-07-10T03:45:40;14.70;88.50
32640;DHT22;19049;52.524;11.468;2022-07-10T03:48:05;14.70;88.70
32640;DHT22;19049;52.524;11.468;2022-07-10T03:50:32;14.60;88.80
32640;DHT22;19049;52.524;11.468;2022-07-10T03:52:58;14.70;88.70
32640;DHT22;19049;52.524;11.468;2022-07-10T03:55:24;14.60;89.60
32640;DHT22;19049;52.524;11.468;2022-07-10T03:57:49;14.70;88.80
32640;DHT22;19049;52.524;11.468;2022-07-10T04:00:24;14.70;89.30
32640;DHT22;19049;52.524;11.468;2022-07-10T04:03:01;14.70;89.20
32640;DHT22;19049;52.524;11.468;2022-07-10T04:05:28;14.70;89.40
32640;DHT22;19049;52.524;11.468;2022-07-10T04:07:54;14.70;89.20
32640;DHT22;19049;52.524;11.468;2022-07-10T04:10:22;14.80;88.90
32640;DHT22;19049;52.524;11.468;2022-07-10T04:12:48;14.80;89.20
32640;DHT22;19049;52.524;11.468;2022-07-10T04:15:13;14.80;89.40
32640;DHT22;19049;52.524;11.468;2022-07-10T04:17:39;14.80;89.20
32640;DHT22;19049;52.524;11.468;2022-07-10T04:20:06;14.80;90.00
32640;DHT22;19049;52.524;11.468;2022-07-10T04:22:32;14.90;89.30
32640;DHT22;19049;52.524;11.468;2022-07-10T04:24:58;14.90;89.30
32640;DHT22;19049;52.524;11.468;2022-07-10T04:27:23;14.90;90.00
32640;DHT22;19049;52.524;11.468;2022-07-10T04:29:49;14.90;90.00
32640;DHT22;19049;52.524;11.468;2022-07-10T04:32:15;14.90;89.60
32640;DHT22;19049;52.524;11.468;2022-07-10T04:34:41;14.90;90.00
32640;DHT22;19049;52.524;11.468;2022-07-10T04:37:07;14.90;89.90
32640;DHT22;19049;52.524;11.468;2022-07-10T04:39:34;15.00;89.70
32640;DHT22;19049;52.524;11.468;2022-07-10T04:42:01;15.00;89.60
32640;DHT22;19049;52.524;11.468;2022-07-10T04:44:27;15.10;89.60
32640;DHT22;19049;52.524;11.468;2022-07-10T04:46:52;15.10;89.60
32640;DHT22;19049;52.524;11.468;2022-07-10T04:49:18;15.20;89.80
32640;DHT22;19049;52.524;11.468;2022-07-10T04:51:44;15.20;89.50
32640;DHT22;19049;52.524;11.468;2022-07-10T04:54:10;15.20;89.60
32640;DHT22;19049;52.524;11.468;2022-07-10T04:56:35;15.20;89.80
32640;DHT22;19049;52.524;11.468;2022-07-10T04:59:01;15.20;89.80
32640;DHT22;19049;52.524;11.468;2022-07-10T05:01:27;15.30;89.90
32640;DHT22;19049;52.524;11.468;2022-07-10T05:03:53;15.30;89.90
32640;DHT22;19049;52.524;11.468;2022-07-10T05:06:19;15.30;89.80
32640;DHT22;19049;52.524;11.468;2022-07-10T05:08:44;15.30;89.80
32640;DHT22;19049;52.524;11.468;2022-07-10T05:11:10;15.30;89.80
32640;DHT22;19049;52.524;11.468;2022-07-10T05:13:36;15.40;89.60
32640;DHT22;19049;52.524;11.468;2022-07-10T05:16:02;15.40;90.10
32640;DHT22;19049;52.524;11.468;2022-07-10T05:18:28;15.40;89.50
32640;DHT22;19049;52.524;11.468;2022-07-10T05:20:54;15.40;89.30
32640;DHT22;19049;52.524;11.468;2022-07-10T05:23:20;15.50;89.20
32640;DHT22;19049;52.524;11.468;2022-07-10T05:25:45;15.50;89.00
32640;DHT22;19049;52.524;11.468;2022-07-10T05:28:11;15.60;88.90
32640;DHT22;19049;52.524;11.468;2022-07-10T05:30:39;15.60;88.80
32640;DHT22;19049;52.524;11.468;2022-07-10T05:33:05;15.60;88.90
32640;DHT22;19049;52.524;11.468;2022-07-10T05:35:30;15.60;88.90
32640;DHT22;19049;52.524;11.468;2022-07-10T05:37:56;15.60;89.00
32640;DHT22;19049;52.524;11.468;2022-07-10T05:40:22;15.70;88.80
32640;DHT22;19049;52.524;11.468;2022-07-10T05:42:47;15.80;88.80
32640;DHT22;19049;52.524;11.468;2022-07-10T05:45:13;15.80;88.70
32640;DHT22;19049;52.524;11.468;2022-07-10T05:47:39;15.90;88.40
32640;DHT22;19049;52.524;11.468;2022-07-10T05:50:05;15.90;88.10
32640;DHT22;19049;52.524;11.468;2022-07-10T05:52:31;15.90;88.00
32640;DHT22;19049;52.524;11.468;2022-07-10T05:54:57;16.00;87.90
32640;DHT22;19049;52.524;11.468;2022-07-10T05:57:23;16.00;87.60
32640;DHT22;19049;52.524;11.468;2022-07-10T05:59:48;16.00;87.30
32640;DHT22;19049;52.524;11.468;2022-07-10T06:02:14;16.00;86.90
32640;DHT22;19049;52.524;11.468;2022-07-10T06:04:40;16.00;87.00
32640;DHT22;19049;52.524;11.468;2022-07-10T06:07:06;16.00;86.80
32640;DHT22;19049;52.524;11.468;2022-07-10T06:09:32;16.10;86.90
32640;DHT22;19049;52.524;11.468;2022-07-10T06:11:57;16.10;86.90
32640;DHT22;19049;52.524;11.468;2022-07-10T06:14:23;16.20;86.70
32640;DHT22;19049;52.524;11.468;2022-07-10T06:16:48;16.20;86.40
32640;DHT22;19049;52.524;11.468;2022-07-10T06:19:14;16.20;86.50
32640;DHT22;19049;52.524;11.468;2022-07-10T06:21:42;16.30;86.30
32640;DHT22;19049;52.524;11.468;2022-07-10T06:24:08;16.30;86.10
32640;DHT22;19049;52.524;11.468;2022-07-10T06:26:34;16.40;85.60
32640;DHT22;19049;52.524;11.468;2022-07-10T06:29:00;16.40;85.30
32640;DHT22;19049;52.524;11.468;2022-07-10T06:31:25;16.40;85.40
32640;DHT22;19049;52.524;11.468;2022-07-10T06:33:51;16.50;85.60
32640;DHT22;19049;52.524;11.468;2022-07-10T06:36:17;16.60;85.10
32640;DHT22;19049;52.524;11.468;2022-07-10T06:38:43;16.60;84.80
32640;DHT22;19049;52.524;11.468;2022-07-10T06:41:09;16.60;84.60
32640;DHT22;19049;52.524;11.468;2022-07-10T06:43:34;16.70;84.60
32640;DHT22;19049;52.524;11.468;2022-07-10T06:46:00;16.80;84.00
32640;DHT22;19049;52.524;11.468;2022-07-10T06:48:26;16.90;83.70
32640;DHT22;19049;52.524;11.468;2022-07-10T06:50:53;16.90;83.50
32640;DHT22;19049;52.524;11.468;2022-07-10T06:53:18;16.90;83.00
32640;DHT22;19049;52.524;11.468;2022-07-10T06:55:53;17.00;82.90
32640;DHT22;19049;52.524;11.468;2022-07-10T06:58:19;17.00;82.70
32640;DHT22;19049;52.524;11.468;2022-07-10T07:00:44;17.10;82.30
32640;DHT22;19049;52.524;11.468;2022-07-10T07:03:10;17.10;81.80
32640;DHT22;19049;52.524;11.468;2022-07-10T07:05:35;17.00;81.80
32640;DHT22;19049;52.524;11.468;2022-07-10T07:08:03;17.10;81.90
32640;DHT22;19049;52.524;11.468;2022-07-10T07:10:29;17.00;82.00
32640;DHT22;19049;52.524;11.468;2022-07-10T07:12:55;17.00;82.10
32640;DHT22;19049;52.524;11.468;2022-07-10T07:15:20;17.10;82.00
32640;DHT22;19049;52.524;11.468;2022-07-10T07:17:48;17.10;82.10
32640;DHT22;19049;52.524;11.468;2022-07-10T07:20:34;17.10;82.40
32640;DHT22;19049;52.524;11.468;2022-07-10T07:23:19;17.00;82.50
32640;DHT22;19049;52.524;11.468;2022-07-10T07:25:45;17.00;82.90
32640;DHT22;19049;52.524;11.468;2022-07-10T07:28:14;16.90;82.90
32640;DHT22;19049;52.524;11.468;2022-07-10T07:30:44;16.90;83.40
32640;DHT22;19049;52.524;11.468;2022-07-10T07:33:10;16.80;83.30
32640;DHT22;19049;52.524;11.468;2022-07-10T07:35:38;16.70;84.00
32640;DHT22;19049;52.524;11.468;2022-07-10T07:38:06;16.60;84.30
32640;DHT22;19049;52.524;11.468;2022-07-10T07:40:32;16.50;84.50
32640;DHT22;19049;52.524;11.468;2022-07-10T07:43:03;16.50;84.90
32640;DHT22;19049;52.524;11.468;2022-07-10T07:45:32;16.50;85.30
32640;DHT22;19049;52.524;11.468;2022-07-10T07:47:58;16.50;84.40
32640;DHT22;19049;52.524;11.468;2022-07-10T07:50:36;16.50;84.40
32640;DHT22;19049;52.524;11.468;2022-07-10T07:53:04;16.60;84.10
32640;DHT22;19049;52.524;11.468;2022-07-10T07:55:31;16.80;83.80
32640;DHT22;19049;52.524;11.468;2022-07-10T07:57:58;16.90;82.70
32640;DHT22;19049;52.524;11.468;2022-07-10T08:00:26;17.00;81.90
32640;DHT22;19049;52.524;11.468;2022-07-10T08:02:53;17.10;79.60
32640;DHT22;19049;52.524;11.468;2022-07-10T08:05:22;17.30;79.50
32640;DHT22;19049;52.524;11.468;2022-07-10T08:07:52;17.50;79.50
32640;DHT22;19049;52.524;11.468;2022-07-10T08:10:21;17.60;77.60
32640;DHT22;19049;52.524;11.468;2022-07-10T08:12:47;17.80;76.90
32640;DHT22;19049;52.524;11.468;2022-07-10T08:15:16;18.00;76.00
32640;DHT22;19049;52.524;11.468;2022-07-10T08:17:42;18.20;75.20
32640;DHT22;19049;52.524;11.468;2022-07-10T08:20:11;18.30;71.90
32640;DHT22;19049;52.524;11.468;2022-07-10T08:22:37;18.50;70.40
32640;DHT22;19049;52.524;11.468;2022-07-10T08:25:03;18.80;73.30
32640;DHT22;19049;52.524;11.468;2022-07-10T08:27:29;19.10;71.90
32640;DHT22;19049;52.524;11.468;2022-07-10T08:29:54;19.30;67.80
32640;DHT22;19049;52.524;11.468;2022-07-10T08:32:20;19.40;68.30
32640;DHT22;19049;52.524;11.468;2022-07-10T08:34:46;19.60;69.50
32640;DHT22;19049;52.524;11.468;2022-07-10T08:37:13;19.90;70.90
32640;DHT22;19049;52.524;11.468;2022-07-10T08:39:39;20.10;69.30
32640;DHT22;19049;52.524;11.468;2022-07-10T08:42:06;20.40;64.60
32640;DHT22;19049;52.524;11.468;2022-07-10T08:44:33;20.50;64.60
32640;DHT22;19049;52.524;11.468;2022-07-10T08:46:59;20.50;64.60
32640;DHT22;19049;52.524;11.468;2022-07-10T08:49:27;20.40;62.60
32640;DHT22;19049;52.524;11.468;2022-07-10T08:51:58;20.40;63.00
32640;DHT22;19049;52.524;11.468;2022-07-10T08:54:28;20.30;63.50
32640;DHT22;19049;52.524;11.468;2022-07-10T08:56:57;20.30;64.10
32640;DHT22;19049;52.524;11.468;2022-07-10T08:59:23;20.40;61.60
32640;DHT22;19049;52.524;11.468;2022-07-10T09:01:49;20.50;60.40
32640;DHT22;19049;52.524;11.468;2022-07-10T09:04:23;20.80;62.00
32640;DHT22;19049;52.524;11.468;2022-07-10T09:06:52;21.00;62.80
32640;DHT22;19049;52.524;11.468;2022-07-10T09:09:19;21.30;60.70
32640;DHT22;19049;52.524;11.468;2022-07-10T09:11:45;21.40;58.20
32640;DHT22;19049;52.524;11.468;2022-07-10T09:14:14;21.30;55.90
32640;DHT22;19049;52.524;11.468;2022-07-10T09:16:44;21.30;55.00
32640;DHT22;19049;52.524;11.468;2022-07-10T09:19:18;21.20;53.40
32640;DHT22;19049;52.524;11.468;2022-07-10T09:21:46;21.10;54.20
32640;DHT22;19049;52.524;11.468;2022-07-10T09:24:12;21.00;54.90
32640;DHT22;19049;52.524;11.468;2022-07-10T09:26:41;21.00;55.90
32640;DHT22;19049;52.524;11.468;2022-07-10T09:29:12;20.90;56.00
32640;DHT22;19049;52.524;11.468;2022-07-10T09:31:58;20.90;55.70
32640;DHT22;19049;52.524;11.468;2022-07-10T09:34:41;20.80;55.90
32640;DHT22;19049;52.524;11.468;2022-07-10T09:37:28;20.70;55.70
32640;DHT22;19049;52.524;11.468;2022-07-10T09:40:04;20.70;57.50
32640;DHT22;19049;52.524;11.468;2022-07-10T09:48:04;21.30;59.30
32640;DHT22;19049;52.524;11.468;2022-07-10T09:50:31;21.60;57.50
32640;DHT22;19049;52.524;11.468;2022-07-10T09:53:01;21.90;55.10
32640;DHT22;19049;52.524;11.468;2022-07-10T09:55:29;22.00;53.60
32640;DHT22;19049;52.524;11.468;2022-07-10T09:58:00;22.10;52.10
32640;DHT22;19049;52.524;11.468;2022-07-10T10:00:30;22.10;51.50
32640;DHT22;19049;52.524;11.468;2022-07-10T10:02:59;21.90;49.30
32640;DHT22;19049;52.524;11.468;2022-07-10T10:05:32;21.80;50.40
32640;DHT22;19049;52.524;11.468;2022-07-10T10:08:31;21.70;52.10
32640;DHT22;19049;52.524;11.468;2022-07-10T10:10:58;21.80;52.20
32640;DHT22;19049;52.524;11.468;2022-07-10T10:13:26;22.00;55.00
32640;DHT22;19049;52.524;11.468;2022-07-10T10:15:56;22.30;53.70
32640;DHT22;19049;52.524;11.468;2022-07-10T10:18:24;22.50;51.20
32640;DHT22;19049;52.524;11.468;2022-07-10T10:20:53;22.70;52.40
32640;DHT22;19049;52.524;11.468;2022-07-10T10:23:21;23.00;52.30
32640;DHT22;19049;52.524;11.468;2022-07-10T10:25:48;23.20;49.60
32640;DHT22;19049;52.524;11.468;2022-07-10T10:28:14;23.50;50.40
32640;DHT22;19049;52.524;11.468;2022-07-10T10:30:43;23.60;49.80
32640;DHT22;19049;52.524;11.468;2022-07-10T10:36:02;23.60;46.30
32640;DHT22;19049;52.524;11.468;2022-07-10T10:41:36;23.30;47.30
32640;DHT22;19049;52.524;11.468;2022-07-10T10:46:34;23.30;48.60
32640;DHT22;19049;52.524;11.468;2022-07-10T10:49:07;23.30;47.50
32640;DHT22;19049;52.524;11.468;2022-07-10T10:51:58;23.50;47.80
32640;DHT22;19049;52.524;11.468;2022-07-10T10:54:31;23.70;45.20
32640;DHT22;19049;52.524;11.468;2022-07-10T10:57:16;23.70;47.30
32640;DHT22;19049;52.524;11.468;2022-07-10T10:59:50;23.80;46.70
32640;DHT22;19049;52.524;11.468;2022-07-10T11:02:25;23.80;45.70
32640;DHT22;19049;52.524;11.468;2022-07-10T11:04:52;23.70;45.50
32640;DHT22;19049;52.524;11.468;2022-07-10T11:10:54;23.50;44.30
32640;DHT22;19049;52.524;11.468;2022-07-10T11:13:27;23.70;46.20
32640;DHT22;19049;52.524;11.468;2022-07-10T11:15:55;23.70;45.50
32640;DHT22;19049;52.524;11.468;2022-07-10T11:18:23;23.90;46.90
32640;DHT22;19049;52.524;11.468;2022-07-10T11:20:52;24.10;44.70
32640;DHT22;19049;52.524;11.468;2022-07-10T11:26:35;24.10;42.50
32640;DHT22;19049;52.524;11.468;2022-07-10T11:29:03;24.30;42.50
32640;DHT22;19049;52.524;11.468;2022-07-10T11:31:32;24.40;43.50
32640;DHT22;19049;52.524;11.468;2022-07-10T11:34:10;24.50;44.30
32640;DHT22;19049;52.524;11.468;2022-07-10T11:36:39;24.70;43.20
32640;DHT22;19049;52.524;11.468;2022-07-10T11:39:06;24.90;44.50
32640;DHT22;19049;52.524;11.468;2022-07-10T11:41:32;24.90;40.70
32640;DHT22;19049;52.524;11.468;2022-07-10T11:44:02;24.90;40.60
32640;DHT22;19049;52.524;11.468;2022-07-10T11:46:33;24.70;42.20
32640;DHT22;19049;52.524;11.468;2022-07-10T11:49:02;24.70;40.70
32640;DHT22;19049;52.524;11.468;2022-07-10T11:51:35;24.70;41.50
32640;DHT22;19049;52.524;11.468;2022-07-10T11:54:16;24.80;40.80
32640;DHT22;19049;52.524;11.468;2022-07-10T11:56:52;24.80;40.20
32640;DHT22;19049;52.524;11.468;2022-07-10T11:59:23;24.80;38.20
32640;DHT22;19049;52.524;11.468;2022-07-10T12:01:52;25.00;40.10
32640;DHT22;19049;52.524;11.468;2022-07-10T12:04:19;25.00;40.20
32640;DHT22;19049;52.524;11.468;2022-07-10T12:06:52;25.00;40.50
32640;DHT22;19049;52.524;11.468;2022-07-10T12:09:20;25.00;40.20
32640;DHT22;19049;52.524;11.468;2022-07-10T12:12:04;24.90;40.60
32640;DHT22;19049;52.524;11.468;2022-07-10T12:14:30;24.90;40.20
32640;DHT22;19049;52.524;11.468;2022-07-10T12:16:57;24.90;40.60
32640;DHT22;19049;52.524;11.468;2022-07-10T12:19:28;25.10;54.10
32640;DHT22;19049;52.524;11.468;2022-07-10T12:21:57;25.20;38.60
32640;DHT22;19049;52.524;11.468;2022-07-10T12:24:24;25.40;37.80
32640;DHT22;19049;52.524;11.468;2022-07-10T12:26:51;25.60;38.70
32640;DHT22;19049;52.524;11.468;2022-07-10T12:29:28;25.60;38.00
32640;DHT22;19049;52.524;11.468;2022-07-10T12:31:56;25.40;36.60
32640;DHT22;19049;52.524;11.468;2022-07-10T12:34:41;25.20;37.80
32640;DHT22;19049;52.524;11.468;2022-07-10T12:37:16;25.30;36.90
32640;DHT22;19049;52.524;11.468;2022-07-10T12:39:50;25.40;38.70
32640;DHT22;19049;52.524;11.468;2022-07-10T12:42:27;25.60;35.10
32640;DHT22;19049;52.524;11.468;2022-07-10T12:44:53;25.90;34.40
32640;DHT22;19049;52.524;11.468;2022-07-10T12:47:20;26.10;33.70
32640;DHT22;19049;52.524;11.468;2022-07-10T12:52:25;26.50;34.80
32640;DHT22;19049;52.524;11.468;2022-07-10T12:55:14;26.70;34.50
32640;DHT22;19049;52.524;11.468;2022-07-10T12:57:52;26.90;32.30
32640;DHT22;19049;52.524;11.468;2022-07-10T13:00:21;27.00;34.40
32640;DHT22;19049;52.524;11.468;2022-07-10T13:02:48;26.90;34.70
32640;DHT22;19049;52.524;11.468;2022-07-10T13:05:41;26.80;33.90
32640;DHT22;19049;52.524;11.468;2022-07-10T13:10:42;26.50;33.90
32640;DHT22;19049;52.524;11.468;2022-07-10T13:13:09;26.50;35.80
32640;DHT22;19049;52.524;11.468;2022-07-10T13:15:36;26.60;34.90
32640;DHT22;19049;52.524;11.468;2022-07-10T13:18:12;26.50;33.10
32640;DHT22;19049;52.524;11.468;2022-07-10T13:20:38;26.30;31.80
32640;DHT22;19049;52.524;11.468;2022-07-10T13:23:04;25.90;33.40
32640;DHT22;19049;52.524;11.468;2022-07-10T13:25:30;25.80;34.90
32640;DHT22;19049;52.524;11.468;2022-07-10T13:27:56;25.70;35.10
32640;DHT22;19049;52.524;11.468;2022-07-10T13:30:22;25.70;35.60
32640;DHT22;19049;52.524;11.468;2022-07-10T13:32:47;25.60;35.60
32640;DHT22;19049;52.524;11.468;2022-07-10T13:35:13;25.50;36.50
32640;DHT22;19049;52.524;11.468;2022-07-10T13:37:39;25.70;36.40
32640;DHT22;19049;52.524;11.468;2022-07-10T13:40:05;26.00;37.40
32640;DHT22;19049;52.524;11.468;2022-07-10T13:42:31;26.30;35.40
32640;DHT22;19049;52.524;11.468;2022-07-10T13:44:57;26.40;34.30
32640;DHT22;19049;52.524;11.468;2022-07-10T13:47:22;26.30;33.30
32640;DHT22;19049;52.524;11.468;2022-07-10T13:49:48;26.00;34.60
32640;DHT22;19049;52.524;11.468;2022-07-10T13:52:15;25.90;35.30
32640;DHT22;19049;52.524;11.468;2022-07-10T13:54:41;25.90;37.00
32640;DHT22;19049;52.524;11.468;2022-07-10T13:57:07;26.10;37.10
32640;DHT22;19049;52.524;11.468;2022-07-10T13:59:32;26.30;35.20
32640;DHT22;19049;52.524;11.468;2022-07-10T14:01:58;26.50;34.10
32640;DHT22;19049;52.524;11.468;2022-07-10T14:04:24;26.50;33.90
32640;DHT22;19049;52.524;11.468;2022-07-10T14:06:49;26.40;34.20
32640;DHT22;19049;52.524;11.468;2022-07-10T14:09:15;26.20;34.00
32640;DHT22;19049;52.524;11.468;2022-07-10T14:11:41;26.00;34.60
32640;DHT22;19049;52.524;11.468;2022-07-10T14:14:09;25.80;35.00
32640;DHT22;19049;52.524;11.468;2022-07-10T14:16:36;25.60;35.20
32640;DHT22;19049;52.524;11.468;2022-07-10T14:19:02;25.30;35.30
32640;DHT22;19049;52.524;11.468;2022-07-10T14:21:27;25.20;36.90
32640;DHT22;19049;52.524;11.468;2022-07-10T14:23:53;25.00;37.20
32640;DHT22;19049;52.524;11.468;2022-07-10T14:26:21;24.90;37.90
32640;DHT22;19049;52.524;11.468;2022-07-10T14:28:48;24.80;38.20
32640;DHT22;19049;52.524;11.468;2022-07-10T14:31:14;24.60;38.30
32640;DHT22;19049;52.524;11.468;2022-07-10T14:33:39;24.40;39.30
32640;DHT22;19049;52.524;11.468;2022-07-10T14:36:05;24.40;40.20
32640;DHT22;19049;52.524;11.468;2022-07-10T14:38:32;24.40;39.50
32640;DHT22;19049;52.524;11.468;2022-07-10T14:40:58;24.30;38.60
32640;DHT22;19049;52.524;11.468;2022-07-10T14:43:24;24.20;39.20
32640;DHT22;19049;52.524;11.468;2022-07-10T14:45:50;24.20;40.20
32640;DHT22;19049;52.524;11.468;2022-07-10T14:48:16;24.20;40.60
32640;DHT22;19049;52.524;11.468;2022-07-10T14:50:41;24.30;41.40
32640;DHT22;19049;52.524;11.468;2022-07-10T14:53:07;24.30;39.40
32640;DHT22;19049;52.524;11.468;2022-07-10T14:55:34;24.50;39.60
32640;DHT22;19049;52.524;11.468;2022-07-10T14:58:00;24.60;40.30
32640;DHT22;19049;52.524;11.468;2022-07-10T15:00:26;24.60;40.70
32640;DHT22;19049;52.524;11.468;2022-07-10T15:02:52;24.70;40.60
32640;DHT22;19049;52.524;11.468;2022-07-10T15:05:20;24.70;41.20
32640;DHT22;19049;52.524;11.468;2022-07-10T15:07:45;24.80;41.10
32640;DHT22;19049;52.524;11.468;2022-07-10T15:10:11;25.00;40.00
32640;DHT22;19049;52.524;11.468;2022-07-10T15:12:38;24.90;38.40
32640;DHT22;19049;52.524;11.468;2022-07-10T15:15:06;24.90;38.70
32640;DHT22;19049;52.524;11.468;2022-07-10T15:17:35;24.80;38.20
32640;DHT22;19049;52.524;11.468;2022-07-10T15:20:02;25.00;38.90
32640;DHT22;19049;52.524;11.468;2022-07-10T15:22:28;25.10;37.00
32640;DHT22;19049;52.524;11.468;2022-07-10T15:24:53;25.20;37.60
32640;DHT22;19049;52.524;11.468;2022-07-10T15:27:19;25.20;37.10
32640;DHT22;19049;52.524;11.468;2022-07-10T15:29:45;25.20;37.20
32640;DHT22;19049;52.524;11.468;2022-07-10T15:32:10;25.20;37.30
32640;DHT22;19049;52.524;11.468;2022-07-10T15:34:37;25.30;36.80
32640;DHT22;19049;52.524;11.468;2022-07-10T15:37:03;25.30;37.20
32640;DHT22;19049;52.524;11.468;2022-07-10T15:39:29;25.50;38.60
32640;DHT22;19049;52.524;11.468;2022-07-10T15:41:54;25.70;38.20
32640;DHT22;19049;52.524;11.468;2022-07-10T15:44:22;26.00;37.10